Wetterdaten: Woche 11.03.13 - 17.03.13 (KW11)
Datum Zeit Temp. A. Feuchte A. Luftdruck Regen Wind Richtung Taupunkt Windchill Windben
11.03.2013 00:00 4,8 C 83 % 998,4 hPa 0,0 l/m 0,0 km/h N 2,2 C 4,8 C 1,2 km/h
11.03.2013 01:00 4,1 C 84 % 998,0 hPa 0,0 l/m 0,1 km/h N 1,6 C 4,1 C 1,6 km/h
11.03.2013 02:00 3,2 C 83 % 998,0 hPa 0,0 l/m 0,1 km/h N 0,6 C 3,2 C 2,0 km/h
11.03.2013 03:00 2,7 C 83 % 997,8 hPa 0,0 l/m 0,1 km/h N 0,1 C 2,7 C 1,2 km/h
11.03.2013 04:00 2,6 C 82 % 997,7 hPa 0,0 l/m 0,3 km/h N -0,1 C 2,6 C 3,6 km/h
11.03.2013 05:00 2,0 C 82 % 997,9 hPa 0,0 l/m 0,3 km/h N -0,7 C 2,0 C 3,6 km/h
11.03.2013 06:00 1,5 C 82 % 998,1 hPa 0,0 l/m 0,1 km/h N -1,2 C 1,5 C 2,8 km/h
11.03.2013 07:00 2,3 C 80 % 998,3 hPa 0,3 l/m 0,0 km/h N -0,8 C 2,3 C 0,8 km/h
11.03.2013 08:00 5,3 C 78 % 998,8 hPa 0,0 l/m 0,0 km/h N 1,7 C 5,3 C 0,8 km/h
11.03.2013 09:00 7,1 C 78 % 999,4 hPa 0,0 l/m 0,3 km/h N 3,4 C 7,1 C 4,4 km/h
11.03.2013 10:00 8,6 C 80 % 999,8 hPa 0,0 l/m 6,8 km/h N 5,3 C 8,0 C 20,5 km/h
11.03.2013 11:00 10,0 C 72 % 1000,0 hPa 0,0 l/m 6,8 km/h N 5,2 C 9,6 C 15,7 km/h
11.03.2013 12:00 11,7 C 62 % 999,8 hPa 0,0 l/m 7,7 km/h N 4,6 C 10,6 C 20,5 km/h
11.03.2013 13:00 11,6 C 59 % 999,5 hPa 0,0 l/m 7,0 km/h N 3,7 C 11,1 C 16,1 km/h
11.03.2013 14:00 12,2 C 60 % 999,3 hPa 0,0 l/m 5,7 km/h N 4,7 C 12,0 C 16,1 km/h
11.03.2013 15:00 10,8 C 65 % 999,5 hPa 0,0 l/m 8,3 km/h N 4,4 C 9,5 C 18,5 km/h
11.03.2013 16:00 9,9 C 66 % 999,8 hPa 0,0 l/m 6,6 km/h N 3,8 C 9,2 C 15,3 km/h
11.03.2013 17:00 8,3 C 68 % 1000,3 hPa 0,0 l/m 3,6 km/h N 2,7 C 8,3 C 10,9 km/h
11.03.2013 18:00 7,3 C 69 % 1001,1 hPa 0,0 l/m 3,9 km/h N 1,9 C 7,3 C 14,1 km/h
11.03.2013 19:00 6,3 C 67 % 1001,7 hPa 0,0 l/m 4,3 km/h N 0,7 C 6,3 C 12,5 km/h
11.03.2013 20:00 5,9 C 67 % 1002,1 hPa 0,0 l/m 2,5 km/h N 0,3 C 5,9 C 8,8 km/h
11.03.2013 21:00 5,8 C 66 % 1002,3 hPa 0,0 l/m 2,2 km/h N -0,2 C 5,8 C 8,9 km/h
11.03.2013 22:00 5,5 C 67 % 1002,3 hPa 0,0 l/m 2,8 km/h N -0,2 C 5,5 C 10,1 km/h
11.03.2013 23:00 4,5 C 73 % 1002,4 hPa 0,0 l/m 1,4 km/h N 0,0 C 4,5 C 6,8 km/h
12.03.2013 00:00 3,2 C 75 % 1002,8 hPa 0,0 l/m 0,7 km/h N -0,8 C 3,2 C 8,4 km/h
12.03.2013 01:00 2,4 C 76 % 1002,9 hPa 0,0 l/m 1,2 km/h N -1,5 C 2,4 C 6,4 km/h
12.03.2013 02:00 2,0 C 77 % 1002,7 hPa 0,0 l/m 0,6 km/h N -1,7 C 2,0 C 5,6 km/h
12.03.2013 03:00 1,5 C 78 % 1002,2 hPa 0,0 l/m 0,2 km/h N -2,0 C 1,5 C 4,4 km/h
12.03.2013 04:00 1,2 C 77 % 1001,9 hPa 0,0 l/m 1,0 km/h N -2,3 C 1,2 C 5,2 km/h
12.03.2013 05:00 1,1 C 77 % 1001,9 hPa 0,0 l/m 0,7 km/h N -2,4 C 1,1 C 4,0 km/h
12.03.2013 06:00 1,1 C 77 % 1001,7 hPa 0,0 l/m 0,1 km/h N -2,5 C 1,1 C 2,0 km/h
12.03.2013 07:00 1,2 C 77 % 1001,5 hPa 0,0 l/m 0,0 km/h N -2,5 C 1,2 C 1,6 km/h
12.03.2013 08:00 1,6 C 74 % 1001,4 hPa 0,0 l/m 0,4 km/h N -2,5 C 1,6 C 4,4 km/h
12.03.2013 09:00 1,8 C 73 % 1001,2 hPa 0,0 l/m 0,7 km/h N -2,4 C 1,8 C 6,0 km/h
12.03.2013 10:00 2,4 C 74 % 1001,0 hPa 0,0 l/m 0,6 km/h N -1,9 C 2,4 C 6,0 km/h
12.03.2013 11:00 3,5 C 71 % 1000,5 hPa 0,0 l/m 0,8 km/h N -1,3 C 3,5 C 5,6 km/h
12.03.2013 12:00 4,1 C 70 % 1000,0 hPa 0,0 l/m 1,1 km/h N -0,9 C 4,1 C 6,0 km/h
12.03.2013 13:00 4,9 C 70 % 999,1 hPa 0,0 l/m 1,2 km/h N -0,1 C 4,9 C 6,4 km/h
12.03.2013 14:00 5,9 C 69 % 998,5 hPa 0,0 l/m 1,5 km/h N 0,6 C 5,9 C 6,8 km/h
12.03.2013 15:00 6,5 C 68 % 998,1 hPa 0,0 l/m 1,5 km/h N 0,9 C 6,5 C 7,6 km/h
12.03.2013 16:00 6,8 C 69 % 997,7 hPa 0,0 l/m 1,6 km/h N 1,4 C 6,8 C 9,6 km/h
12.03.2013 17:00 6,4 C 68 % 997,4 hPa 0,0 l/m 0,9 km/h N 1,0 C 6,4 C 7,2 km/h
12.03.2013 18:00 5,9 C 69 % 997,5 hPa 0,0 l/m 0,7 km/h N 0,7 C 5,9 C 5,6 km/h
12.03.2013 19:00 5,6 C 70 % 997,3 hPa 0,0 l/m 0,2 km/h N 0,6 C 5,6 C 4,4 km/h
12.03.2013 20:00 5,2 C 72 % 997,4 hPa 0,0 l/m 0,3 km/h N 0,5 C 5,2 C 4,0 km/h
12.03.2013 21:00 4,9 C 73 % 997,3 hPa 0,0 l/m 0,5 km/h N 0,4 C 4,9 C 4,0 km/h
12.03.2013 22:00 4,4 C 73 % 997,2 hPa 0,0 l/m 0,9 km/h N -0,1 C 4,4 C 5,2 km/h
12.03.2013 23:00 4,0 C 74 % 997,0 hPa 0,0 l/m 0,5 km/h N -0,2 C 4,0 C 4,0 km/h
13.03.2013 00:00 3,8 C 74 % 997,0 hPa 0,0 l/m 0,5 km/h N -0,4 C 3,8 C 4,0 km/h
13.03.2013 01:00 3,7 C 76 % 997,2 hPa 0,0 l/m 0,1 km/h N -0,2 C 3,7 C 2,4 km/h
13.03.2013 02:00 3,6 C 76 % 997,3 hPa 0,0 l/m 2,9 km/h N -0,2 C 3,6 C 11,6 km/h
13.03.2013 03:00 2,9 C 78 % 997,3 hPa 0,0 l/m 8,3 km/h N -0,6 C 0,6 C 20,1 km/h
13.03.2013 04:00 2,5 C 79 % 997,5 hPa 0,0 l/m 5,4 km/h N -0,9 C 2,2 C 14,1 km/h
13.03.2013 05:00 2,0 C 80 % 997,5 hPa 0,0 l/m 0,4 km/h N -1,2 C 2,0 C 4,0 km/h
13.03.2013 06:00 1,9 C 81 % 997,4 hPa 0,0 l/m 2,3 km/h N -1,0 C 1,9 C 7,6 km/h
13.03.2013 07:00 2,7 C 81 % 997,6 hPa 0,0 l/m 2,7 km/h N -0,3 C 2,7 C 8,0 km/h
13.03.2013 08:00 5,3 C 79 % 997,7 hPa 0,0 l/m 8,5 km/h N 1,9 C 3,5 C 21,7 km/h
13.03.2013 09:00 6,7 C 75 % 997,8 hPa 0,0 l/m 7,7 km/h N 2,4 C 5,6 C 18,5 km/h
13.03.2013 10:00 7,7 C 67 % 998,0 hPa 0,0 l/m 7,8 km/h N 2,0 C 6,6 C 19,7 km/h
13.03.2013 11:00 9,3 C 59 % 998,0 hPa 0,0 l/m 9,3 km/h N 1,7 C 7,3 C 20,5 km/h
13.03.2013 12:00 9,4 C 58 % 998,1 hPa 0,0 l/m 9,0 km/h N 1,6 C 7,6 C 21,3 km/h
13.03.2013 13:00 9,4 C 59 % 998,0 hPa 0,0 l/m 6,6 km/h N 1,9 C 9,2 C 16,9 km/h
13.03.2013 14:00 8,8 C 62 % 998,1 hPa 0,0 l/m 6,2 km/h N 2,0 C 8,7 C 15,3 km/h
13.03.2013 15:00 7,6 C 68 % 998,3 hPa 0,0 l/m 7,2 km/h N 2,1 C 7,0 C 17,7 km/h
13.03.2013 16:00 6,3 C 76 % 998,8 hPa 0,0 l/m 6,6 km/h N 2,3 C 5,9 C 16,5 km/h
13.03.2013 17:00 5,4 C 79 % 999,3 hPa 0,0 l/m 5,9 km/h N 2,1 C 5,3 C 16,1 km/h
13.03.2013 18:00 4,5 C 81 % 999,9 hPa 0,0 l/m 6,9 km/h N 1,6 C 3,9 C 15,7 km/h
13.03.2013 19:00 4,0 C 83 % 1000,4 hPa 0,0 l/m 5,4 km/h N 1,3 C 4,0 C 14,1 km/h
13.03.2013 20:00 2,7 C 83 % 1000,9 hPa 0,0 l/m 9,2 km/h N 0,1 C 0,2 C 20,9 km/h
13.03.2013 21:00 1,3 C 84 % 1001,8 hPa 0,0 l/m 6,9 km/h N -1,1 C 0,5 C 17,7 km/h
13.03.2013 22:00 0,4 C 85 % 1002,3 hPa 0,0 l/m 6,6 km/h N -1,8 C -0,1 C 16,5 km/h
13.03.2013 23:00 -0,2 C 85 % 1002,8 hPa 0,0 l/m 7,3 km/h N -2,4 C -1,2 C 18,9 km/h
14.03.2013 00:00 -0,7 C 85 % 1002,9 hPa 0,0 l/m 6,8 km/h N -2,9 C -1,1 C 17,3 km/h
14.03.2013 01:00 -1,0 C 85 % 1003,1 hPa 0,0 l/m 8,4 km/h N -3,2 C -3,1 C 20,9 km/h
14.03.2013 02:00 -1,3 C 85 % 1002,9 hPa 0,0 l/m 9,5 km/h N -3,6 C -4,5 C 23,7 km/h
14.03.2013 03:00 -1,4 C 82 % 1003,3 hPa 0,0 l/m 10,1 km/h N -4,2 C -5,1 C 24,5 km/h
14.03.2013 04:00 -1,8 C 80 % 1003,3 hPa 0,0 l/m 12,4 km/h N -4,8 C -7,2 C 25,8 km/h
14.03.2013 05:00 -1,9 C 80 % 1003,5 hPa 0,0 l/m 11,9 km/h N -4,9 C -7,0 C 29,8 km/h
14.03.2013 06:00 -2,3 C 80 % 1003,4 hPa 0,0 l/m 13,8 km/h N -5,3 C -8,9 C 30,6 km/h
14.03.2013 07:00 -2,8 C 83 % 1003,5 hPa 0,0 l/m 14,6 km/h N -5,3 C -10,0 C 32,2 km/h
14.03.2013 08:00 -3,0 C 83 % 1003,7 hPa 0,0 l/m 14,6 km/h N -5,4 C -10,4 C 29,4 km/h
14.03.2013 09:00 -3,1 C 84 % 1004,1 hPa 0,0 l/m 14,9 km/h N -5,4 C -10,7 C 30,2 km/h
14.03.2013 10:00 -2,9 C 84 % 1003,8 hPa 0,0 l/m 15,4 km/h N -5,3 C -10,8 C 33,4 km/h
14.03.2013 11:00 -2,8 C 83 % 1003,7 hPa 0,0 l/m 17,9 km/h N -5,4 C -12,2 C 35,0 km/h
14.03.2013 12:00 -2,9 C 83 % 1003,4 hPa 0,0 l/m 18,5 km/h N -5,4 C -12,6 C 34,2 km/h
14.03.2013 13:00 -2,8 C 84 % 1003,1 hPa 0,0 l/m 16,0 km/h N -5,1 C -11,0 C 32,6 km/h
14.03.2013 14:00 -2,9 C 85 % 1002,6 hPa 0,0 l/m 15,9 km/h N -5,1 C -11,1 C 33,0 km/h
14.03.2013 15:00 -2,5 C 81 % 1002,2 hPa 0,0 l/m 17,7 km/h N -5,3 C -11,6 C 38,6 km/h
14.03.2013 16:00 -1,9 C 73 % 1001,9 hPa 0,0 l/m 17,7 km/h N -6,2 C -10,9 C 41,8 km/h
14.03.2013 17:00 -2,0 C 75 % 1002,5 hPa 0,0 l/m 17,0 km/h N -5,9 C -10,6 C 33,8 km/h
14.03.2013 18:00 -1,4 C 68 % 1002,6 hPa 0,0 l/m 17,5 km/h N -6,6 C -10,2 C 38,2 km/h
14.03.2013 19:00 -1,0 C 62 % 1003,0 hPa 0,0 l/m 20,0 km/h N -7,3 C -10,7 C 41,0 km/h
14.03.2013 20:00 -0,9 C 57 % 1003,2 hPa 0,0 l/m 20,1 km/h N -8,3 C -10,8 C 43,8 km/h
14.03.2013 21:00 -1,1 C 57 % 1003,1 hPa 0,0 l/m 20,5 km/h N -8,6 C -11,3 C 41,8 km/h
14.03.2013 22:00 -1,5 C 57 % 1003,4 hPa 0,0 l/m 18,6 km/h N -8,9 C -10,9 C 42,7 km/h
14.03.2013 23:00 -2,0 C 59 % 1003,5 hPa 0,0 l/m 22,5 km/h N -8,9 C -13,4 C 48,3 km/h
15.03.2013 00:00 -2,4 C 61 % 1003,4 hPa 0,0 l/m 21,0 km/h N -8,9 C -13,2 C 46,7 km/h
15.03.2013 01:00 -2,6 C 60 % 1003,4 hPa 0,0 l/m 20,8 km/h N -9,4 C -13,4 C 44,7 km/h
15.03.2013 02:00 -2,8 C 59 % 1003,6 hPa 0,0 l/m 20,7 km/h N -9,6 C -13,6 C 44,7 km/h
15.03.2013 03:00 -2,8 C 59 % 1003,5 hPa 0,0 l/m 22,1 km/h N -9,7 C -14,3 C 48,3 km/h
15.03.2013 04:00 -3,0 C 60 % 1003,7 hPa 0,0 l/m 24,2 km/h N -9,7 C -15,5 C 48,3 km/h
15.03.2013 05:00 -3,2 C 62 % 1004,3 hPa 0,0 l/m 22,7 km/h N -9,5 C -15,1 C 47,1 km/h
15.03.2013 06:00 -3,3 C 63 % 1005,1 hPa 0,0 l/m 23,0 km/h N -9,4 C -15,3 C 48,3 km/h
15.03.2013 07:00 -3,1 C 62 % 1006,0 hPa 0,0 l/m 21,4 km/h N -9,4 C -14,3 C 39,0 km/h
15.03.2013 08:00 -2,5 C 61 % 1006,7 hPa 0,0 l/m 22,5 km/h N -9,0 C -14,1 C 43,4 km/h
15.03.2013 09:00 -1,5 C 59 % 1007,1 hPa 0,0 l/m 24,2 km/h N -8,4 C -13,5 C 47,5 km/h
15.03.2013 10:00 -0,6 C 57 % 1007,9 hPa 0,0 l/m 25,4 km/h N -8,1 C -12,6 C 48,7 km/h
15.03.2013 11:00 0,3 C 56 % 1008,9 hPa 0,0 l/m 22,5 km/h N -7,5 C -10,3 C 46,3 km/h
15.03.2013 12:00 0,8 C 55 % 1009,5 hPa 0,0 l/m 21,3 km/h N -7,3 C -9,2 C 42,6 km/h
15.03.2013 13:00 0,6 C 51 % 1009,9 hPa 0,0 l/m 19,9 km/h N -8,2 C -8,7 C 39,8 km/h
15.03.2013 14:00 0,3 C 54 % 1010,7 hPa 0,0 l/m 18,3 km/h N -7,8 C -8,4 C 37,0 km/h
15.03.2013 15:00 0,5 C 51 % 1011,2 hPa 0,0 l/m 18,1 km/h N -8,6 C -8,1 C 39,0 km/h
15.03.2013 16:00 0,4 C 49 % 1011,9 hPa 0,0 l/m 15,6 km/h N -9,1 C -6,9 C 35,0 km/h
15.03.2013 17:00 0,2 C 48 % 1012,8 hPa 0,0 l/m 12,9 km/h N -9,6 C -5,3 C 29,4 km/h
15.03.2013 18:00 -0,3 C 48 % 1013,9 hPa 0,0 l/m 10,0 km/h N -9,9 C -3,7 C 23,7 km/h
15.03.2013 19:00 -0,8 C 57 % 1015,0 hPa 0,0 l/m 8,3 km/h N -8,3 C -2,7 C 19,3 km/h
15.03.2013 20:00 -1,3 C 62 % 1015,7 hPa 0,0 l/m 10,0 km/h N -7,6 C -4,9 C 24,9 km/h
15.03.2013 21:00 -1,7 C 66 % 1016,2 hPa 0,0 l/m 8,3 km/h N -7,3 C -3,6 C 20,1 km/h
15.03.2013 22:00 -2,0 C 65 % 1016,5 hPa 0,0 l/m 8,9 km/h N -7,8 C -4,7 C 20,5 km/h
15.03.2013 23:00 -2,3 C 64 % 1016,9 hPa 0,0 l/m 8,6 km/h N -8,2 C -4,7 C 22,5 km/h
16.03.2013 00:00 -2,7 C 66 % 1017,3 hPa 0,0 l/m 8,3 km/h N -8,2 C -4,8 C 20,9 km/h
16.03.2013 01:00 -3,3 C 69 % 1017,8 hPa 0,0 l/m 7,4 km/h N -8,1 C -4,5 C 16,9 km/h
16.03.2013 02:00 -3,7 C 71 % 1018,3 hPa 0,0 l/m 7,2 km/h N -8,2 C -4,7 C 16,9 km/h
16.03.2013 03:00 -4,0 C 72 % 1018,3 hPa 0,0 l/m 3,3 km/h N -8,3 C -4,0 C 11,3 km/h
16.03.2013 04:00 -4,6 C 74 % 1018,8 hPa 0,0 l/m 1,1 km/h N -8,6 C -4,6 C 5,2 km/h
16.03.2013 05:00 -4,4 C 75 % 1019,3 hPa 0,0 l/m 2,9 km/h N -8,1 C -4,4 C 8,4 km/h
16.03.2013 06:00 -4,2 C 74 % 1020,0 hPa 0,0 l/m 4,7 km/h N -8,1 C -4,2 C 11,7 km/h
16.03.2013 07:00 -3,4 C 73 % 1020,5 hPa 0,0 l/m 6,1 km/h N -7,7 C -3,7 C 13,3 km/h
16.03.2013 08:00 -2,1 C 69 % 1021,0 hPa 0,0 l/m 6,8 km/h N -7,0 C -2,9 C 16,9 km/h
16.03.2013 09:00 -0,4 C 59 % 1021,2 hPa 0,0 l/m 8,1 km/h N -7,5 C -2,1 C 18,5 km/h
16.03.2013 10:00 0,5 C 51 % 1021,2 hPa 0,0 l/m 10,3 km/h N -8,5 C -3,0 C 24,5 km/h
16.03.2013 11:00 1,5 C 47 % 1020,9 hPa 0,0 l/m 9,9 km/h N -8,6 C -1,6 C 22,5 km/h
16.03.2013 12:00 1,4 C 47 % 1020,7 hPa 0,0 l/m 10,2 km/h N -8,7 C -2,0 C 22,5 km/h
16.03.2013 13:00 1,8 C 49 % 1020,1 hPa 0,0 l/m 8,1 km/h N -7,8 C 0,1 C 20,1 km/h
16.03.2013 14:00 2,8 C 43 % 1019,6 hPa 0,0 l/m 5,7 km/h N -8,5 C 2,6 C 17,3 km/h
16.03.2013 15:00 2,0 C 43 % 1019,4 hPa 0,0 l/m 4,9 km/h N -9,2 C 1,9 C 13,7 km/h
16.03.2013 16:00 2,0 C 42 % 1019,4 hPa 0,0 l/m 5,0 km/h N -9,6 C 2,0 C 15,7 km/h
16.03.2013 17:00 1,5 C 44 % 1019,4 hPa 0,0 l/m 1,3 km/h N -9,4 C 1,5 C 6,4 km/h
16.03.2013 18:00 0,0 C 48 % 1019,5 hPa 0,0 l/m 0,2 km/h N -9,6 C 0,0 C 1,6 km/h
16.03.2013 19:00 -1,8 C 55 % 1019,7 hPa 0,0 l/m 0,1 km/h N -9,7 C -1,8 C 1,6 km/h
16.03.2013 20:00 -2,9 C 60 % 1020,2 hPa 0,0 l/m 0,0 km/h N -9,5 C -2,9 C 0,0 km/h
16.03.2013 21:00 -4,2 C 64 % 1020,1 hPa 0,0 l/m 0,0 km/h N -10,1 C -4,2 C 0,4 km/h
16.03.2013 22:00 -4,4 C 68 % 1019,7 hPa 0,0 l/m 0,4 km/h N -9,5 C -4,4 C 3,2 km/h
16.03.2013 23:00 -3,3 C 64 % 1019,3 hPa 0,0 l/m 1,3 km/h N -9,1 C -3,3 C 6,4 km/h
17.03.2013 00:00 -4,3 C 66 % 1019,0 hPa 0,0 l/m 0,0 km/h N -9,7 C -4,3 C 0,0 km/h
17.03.2013 01:00 -6,0 C 72 % 1018,6 hPa 0,0 l/m 0,0 km/h N -10,2 C -6,0 C 0,0 km/h
17.03.2013 02:00 -6,7 C 77 % 1018,0 hPa 0,0 l/m 0,1 km/h N -10,0 C -6,7 C 2,8 km/h
17.03.2013 03:00 -6,2 C 80 % 1017,2 hPa 0,0 l/m 0,8 km/h N -9,0 C -6,2 C 5,6 km/h
17.03.2013 04:00 -4,3 C 76 % 1016,5 hPa 0,0 l/m 2,5 km/h N -7,9 C -4,3 C 12,8 km/h
17.03.2013 05:00 -4,1 C 74 % 1016,0 hPa 0,0 l/m 4,2 km/h N -8,0 C -4,1 C 18,1 km/h
17.03.2013 06:00 -4,1 C 75 % 1015,9 hPa 0,0 l/m 5,3 km/h N -7,9 C -4,1 C 16,9 km/h
17.03.2013 07:00 -3,5 C 72 % 1015,8 hPa 0,0 l/m 8,4 km/h N -7,7 C -5,7 C 21,3 km/h
17.03.2013 08:00 -1,4 C 65 % 1015,6 hPa 0,0 l/m 12,6 km/h N -7,1 C -6,9 C 27,8 km/h
17.03.2013 09:00 0,7 C 56 % 1015,2 hPa 0,0 l/m 15,0 km/h N -7,0 C -6,1 C 32,6 km/h
17.03.2013 10:00 1,9 C 52 % 1014,8 hPa 0,0 l/m 17,7 km/h N -6,9 C -6,0 C 39,0 km/h
17.03.2013 11:00 2,9 C 48 % 1014,4 hPa 0,0 l/m 19,8 km/h N -7,1 C -5,7 C 40,6 km/h
17.03.2013 12:00 3,9 C 45 % 1013,7 hPa 0,0 l/m 19,0 km/h N -6,9 C -4,2 C 39,0 km/h
17.03.2013 13:00 4,4 C 46 % 1012,8 hPa 0,0 l/m 19,5 km/h N -6,3 C -3,7 C 41,4 km/h
17.03.2013 14:00 4,6 C 47 % 1012,4 hPa 0,0 l/m 18,7 km/h N -5,8 C -3,1 C 41,4 km/h
17.03.2013 15:00 4,4 C 48 % 1011,8 hPa 0,0 l/m 18,0 km/h N -5,7 C -3,1 C 43,4 km/h
17.03.2013 16:00 4,1 C 51 % 1011,3 hPa 0,0 l/m 12,2 km/h N -5,2 C -0,2 C 31,8 km/h
17.03.2013 17:00 3,0 C 54 % 1011,0 hPa 0,0 l/m 12,3 km/h N -5,3 C -1,8 C 31,0 km/h
17.03.2013 18:00 2,2 C 58 % 1010,9 hPa 0,0 l/m 11,8 km/h N -5,2 C -2,2 C 33,0 km/h
17.03.2013 19:00 1,5 C 62 % 1010,5 hPa 0,0 l/m 10,2 km/h N -5,1 C -1,9 C 26,9 km/h
17.03.2013 20:00 1,2 C 65 % 1010,1 hPa 0,0 l/m 9,4 km/h N -4,7 C -1,5 C 25,8 km/h
17.03.2013 21:00 1,0 C 66 % 1009,4 hPa 0,0 l/m 10,5 km/h N -4,7 C -2,8 C 26,6 km/h
17.03.2013 22:00 0,7 C 68 % 1008,6 hPa 0,0 l/m 12,8 km/h N -4,5 C -4,7 C 31,8 km/h
17.03.2013 23:00 0,4 C 70 % 1007,5 hPa 0,0 l/m 11,7 km/h N -4,4 C -4,3 C 27,8 km/h
Min-Datum _ 17.03.13 16.03.13 12.03.13 - 11.03.13 - 16.03.13 15.03.13 11.03.13
_ Min-Zeit 03:15 16:00 23:45 - 00:00 - 21:15 06:30 00:00
Minimum _ -6,9 C 41 % 996,8 hPa - 0,0 km/h - -10,5 C -16,4 C 0,0 km/h
Max-Datum _ 11.03.13 13.03.13 16.03.13 11.03.13 15.03.13 - 11.03.13 11.03.13 14.03.13
_ Max-Zeit 14:15 21:45 10:45 07:30 09:45 - 10:15 14:00 20:00
Maximum _ 12,8 C 85 % 1021,3 hPa 0,3 l/m 26,6 km/h
N
- 6,1 C 12,6 C 53,1 km/h
N
Durchschnitt _ 1,4 C 68 % 1006,3 hPa #0,3 l/m 8,3 km/h N -4,0 C -1,7 C 19,8 km/h